首页
METAR-TAF:

METAR-TAF

机场 :

雅库茨克, 俄罗斯

纬度: 62-01N, 经度: 129-43E, 海拔: 103米

当前天气观测

该预报发布于43分钟前的10:30 UTC
风速4节,风向西转西北
温度 -25°C
湿度 83%
气压 1014 hPa
能见度10公里或以上
1500米以下无云,无积雨云

METAR: UEEE 151030Z 29002MPS CAVOK M25/M27 Q1014 R23L/450155 NOSIG RMK QFE752

时间: 20:13 (11:13 UTC)

预报

该预报发布于3小时和13分钟前的08:00 UTC
预报有效从15日的 09点(UTC)到 16日的 15点(UTC)
风速6节,风向西转西北,有时为17节阵风
能见度10公里或以上
散云层高于3000英尺
多云层高于10000英尺
短暂存在
从 15日的 09点(UTC)到 15日的 15点(UTC)
能見度: 3200
小雪, 轻雾
短暂存在
从 15日的 15点(UTC)到 16日的 01点(UTC)
风速2节,风向多变
能見度: 0300
层高于300英尺
雪, 冻雾

TAF: UEEE 150800Z 1509/1615 30003G09MPS 9999 SCT030 BKN100 TEMPO 1509/1515 3200 -SN BR TEMPO 1515/1601 VRB01MPS 0300 SN FZFG VV003

超过4000个机场的气象观测和天气预报(METAR&TAF报告)。

可查询的气象台以黄色和红色小点在地图上表示。

将鼠标移到小点上方,可查看气象台名称。

然后点击查看天气观测和预报。

如需切换地图:点击带黑十字的绿色按钮放大地图;点击带横线的绿色按钮缩小地图;或者点击绿色箭头查看邻近地区的地图。


METAR-TAF: